Terminal Aerodrome Forecast
Issued by NWS Cleveland, OH

Home | Current Version | Previous Version | Text Only | Print | Product List | Glossary Off
Versions: 1 2 3 4 5 6 7 8 9 10 11 12 13 14 15 16 17 18 19 20 21 22 23 24 25 26

000
FTUS41 KCLE 260525
TAFMFD
TAF
KMFD 260525Z 2606/2706 30008KT P6SM OVC008
     FM261200 27010KT P6SM OVC015
      TEMPO 2612/2614 BKN008
     FM261700 27008KT P6SM BKN035
     FM262200 27006KT P6SM SCT035=

USA.gov is the U.S. government's official web portal to all federal, state and local government web resources and services.